sensor_id;sensor_type;location;lat;lon;timestamp;temperature;humidity
25108;DHT22;13090;53.422;7.670;2023-05-14T00:03:22;15.10;59.10
25108;DHT22;13090;53.422;7.670;2023-05-14T00:08:24;15.00;58.80
25108;DHT22;13090;53.422;7.670;2023-05-14T00:13:28;14.90;58.70
25108;DHT22;13090;53.422;7.670;2023-05-14T00:18:31;14.90;59.10
25108;DHT22;13090;53.422;7.670;2023-05-14T00:23:33;14.80;59.10
25108;DHT22;13090;53.422;7.670;2023-05-14T00:28:37;14.70;59.30
25108;DHT22;13090;53.422;7.670;2023-05-14T00:33:39;14.60;59.90
25108;DHT22;13090;53.422;7.670;2023-05-14T00:38:41;14.50;60.10
25108;DHT22;13090;53.422;7.670;2023-05-14T00:43:45;14.50;60.70
25108;DHT22;13090;53.422;7.670;2023-05-14T00:48:47;14.40;61.50
25108;DHT22;13090;53.422;7.670;2023-05-14T00:53:50;14.40;61.40
25108;DHT22;13090;53.422;7.670;2023-05-14T00:58:54;14.30;62.10
25108;DHT22;13090;53.422;7.670;2023-05-14T01:03:57;14.20;63.00
25108;DHT22;13090;53.422;7.670;2023-05-14T01:09:04;14.10;63.20
25108;DHT22;13090;53.422;7.670;2023-05-14T01:14:21;14.00;63.60
25108;DHT22;13090;53.422;7.670;2023-05-14T01:19:32;14.00;64.50
25108;DHT22;13090;53.422;7.670;2023-05-14T01:24:37;14.00;63.90
25108;DHT22;13090;53.422;7.670;2023-05-14T01:29:42;14.00;63.80
25108;DHT22;13090;53.422;7.670;2023-05-14T01:34:46;14.00;64.50
25108;DHT22;13090;53.422;7.670;2023-05-14T01:39:51;14.00;64.30
25108;DHT22;13090;53.422;7.670;2023-05-14T01:44:54;14.00;64.90
25108;DHT22;13090;53.422;7.670;2023-05-14T01:49:56;14.00;64.90
25108;DHT22;13090;53.422;7.670;2023-05-14T01:55:00;13.90;65.20
25108;DHT22;13090;53.422;7.670;2023-05-14T02:00:03;13.90;65.80
25108;DHT22;13090;53.422;7.670;2023-05-14T02:05:06;13.90;65.70
25108;DHT22;13090;53.422;7.670;2023-05-14T02:10:10;14.00;66.10
25108;DHT22;13090;53.422;7.670;2023-05-14T02:15:12;14.00;66.60
25108;DHT22;13090;53.422;7.670;2023-05-14T02:20:15;14.00;66.20
25108;DHT22;13090;53.422;7.670;2023-05-14T02:25:18;13.90;66.40
25108;DHT22;13090;53.422;7.670;2023-05-14T02:30:22;13.70;67.20
25108;DHT22;13090;53.422;7.670;2023-05-14T02:35:24;13.60;67.20
25108;DHT22;13090;53.422;7.670;2023-05-14T02:40:28;13.50;67.20
25108;DHT22;13090;53.422;7.670;2023-05-14T02:45:30;13.50;67.60
25108;DHT22;13090;53.422;7.670;2023-05-14T02:50:32;13.60;67.60
25108;DHT22;13090;53.422;7.670;2023-05-14T02:55:36;13.60;68.10
25108;DHT22;13090;53.422;7.670;2023-05-14T03:00:38;13.50;68.40
25108;DHT22;13090;53.422;7.670;2023-05-14T03:05:41;13.50;68.30
25108;DHT22;13090;53.422;7.670;2023-05-14T03:10:44;13.50;68.30
25108;DHT22;13090;53.422;7.670;2023-05-14T03:15:47;13.50;68.60
25108;DHT22;13090;53.422;7.670;2023-05-14T03:20:49;13.50;68.10
25108;DHT22;13090;53.422;7.670;2023-05-14T03:25:53;13.50;67.90
25108;DHT22;13090;53.422;7.670;2023-05-14T03:30:55;13.50;69.00
25108;DHT22;13090;53.422;7.670;2023-05-14T03:35:57;13.50;67.80
25108;DHT22;13090;53.422;7.670;2023-05-14T03:41:01;13.50;67.90
25108;DHT22;13090;53.422;7.670;2023-05-14T03:46:03;13.50;68.20
25108;DHT22;13090;53.422;7.670;2023-05-14T03:51:05;13.50;68.10
25108;DHT22;13090;53.422;7.670;2023-05-14T03:56:09;13.50;68.40
25108;DHT22;13090;53.422;7.670;2023-05-14T04:01:11;13.50;68.80
25108;DHT22;13090;53.422;7.670;2023-05-14T04:06:13;13.50;68.60
25108;DHT22;13090;53.422;7.670;2023-05-14T04:11:17;13.50;68.70
25108;DHT22;13090;53.422;7.670;2023-05-14T04:16:19;13.60;69.10
25108;DHT22;13090;53.422;7.670;2023-05-14T04:21:21;13.60;69.00
25108;DHT22;13090;53.422;7.670;2023-05-14T04:26:25;13.60;69.10
25108;DHT22;13090;53.422;7.670;2023-05-14T04:31:27;13.70;69.50
25108;DHT22;13090;53.422;7.670;2023-05-14T04:36:29;13.70;69.30
25108;DHT22;13090;53.422;7.670;2023-05-14T04:41:33;13.70;69.40
25108;DHT22;13090;53.422;7.670;2023-05-14T04:46:35;13.80;69.90
25108;DHT22;13090;53.422;7.670;2023-05-14T04:51:37;13.80;69.70
25108;DHT22;13090;53.422;7.670;2023-05-14T04:56:41;13.90;69.70
25108;DHT22;13090;53.422;7.670;2023-05-14T05:01:43;14.00;70.60
25108;DHT22;13090;53.422;7.670;2023-05-14T05:06:45;14.00;70.40
25108;DHT22;13090;53.422;7.670;2023-05-14T05:11:49;14.00;70.50
25108;DHT22;13090;53.422;7.670;2023-05-14T05:16:51;14.10;71.30
25108;DHT22;13090;53.422;7.670;2023-05-14T05:21:54;14.30;71.50
25108;DHT22;13090;53.422;7.670;2023-05-14T05:26:57;14.50;71.70
25108;DHT22;13090;53.422;7.670;2023-05-14T05:31:59;14.80;72.40
25108;DHT22;13090;53.422;7.670;2023-05-14T05:37:02;14.90;74.00
25108;DHT22;13090;53.422;7.670;2023-05-14T05:42:06;14.90;77.60
25108;DHT22;13090;53.422;7.670;2023-05-14T05:47:09;14.90;74.30
25108;DHT22;13090;53.422;7.670;2023-05-14T05:52:11;15.00;75.30
25108;DHT22;13090;53.422;7.670;2023-05-14T05:57:15;15.20;75.60
25108;DHT22;13090;53.422;7.670;2023-05-14T06:02:17;15.50;74.40
25108;DHT22;13090;53.422;7.670;2023-05-14T06:07:20;15.80;73.50
25108;DHT22;13090;53.422;7.670;2023-05-14T06:12:23;16.20;73.20
25108;DHT22;13090;53.422;7.670;2023-05-14T06:17:26;16.60;72.70
25108;DHT22;13090;53.422;7.670;2023-05-14T06:22:28;17.20;72.00
25108;DHT22;13090;53.422;7.670;2023-05-14T06:27:32;17.90;71.60
25108;DHT22;13090;53.422;7.670;2023-05-14T06:32:34;18.60;70.00
25108;DHT22;13090;53.422;7.670;2023-05-14T06:37:36;19.10;68.40
25108;DHT22;13090;53.422;7.670;2023-05-14T06:42:40;19.30;67.10
25108;DHT22;13090;53.422;7.670;2023-05-14T06:47:42;19.50;67.00
25108;DHT22;13090;53.422;7.670;2023-05-14T06:52:45;19.70;67.10
25108;DHT22;13090;53.422;7.670;2023-05-14T06:57:48;19.90;65.60
25108;DHT22;13090;53.422;7.670;2023-05-14T07:02:50;20.10;64.90
25108;DHT22;13090;53.422;7.670;2023-05-14T07:07:53;20.10;61.60
25108;DHT22;13090;53.422;7.670;2023-05-14T07:12:57;20.00;59.20
25108;DHT22;13090;53.422;7.670;2023-05-14T07:17:59;19.90;59.50
25108;DHT22;13090;53.422;7.670;2023-05-14T07:23:01;19.80;60.40
25108;DHT22;13090;53.422;7.670;2023-05-14T07:28:05;19.80;60.30
25108;DHT22;13090;53.422;7.670;2023-05-14T07:33:07;20.00;60.10
25108;DHT22;13090;53.422;7.670;2023-05-14T07:38:09;20.30;60.40
25108;DHT22;13090;53.422;7.670;2023-05-14T07:43:13;20.80;60.30
25108;DHT22;13090;53.422;7.670;2023-05-14T07:48:15;21.40;59.20
25108;DHT22;13090;53.422;7.670;2023-05-14T07:53:18;21.80;57.10
25108;DHT22;13090;53.422;7.670;2023-05-14T07:58:21;22.00;56.40
25108;DHT22;13090;53.422;7.670;2023-05-14T08:03:24;22.20;56.60
25108;DHT22;13090;53.422;7.670;2023-05-14T08:08:26;22.60;55.60
25108;DHT22;13090;53.422;7.670;2023-05-14T08:13:30;22.70;54.40
25108;DHT22;13090;53.422;7.670;2023-05-14T08:18:32;22.80;54.80
25108;DHT22;13090;53.422;7.670;2023-05-14T08:23:34;23.10;54.90
25108;DHT22;13090;53.422;7.670;2023-05-14T08:28:38;23.40;54.60
25108;DHT22;13090;53.422;7.670;2023-05-14T08:33:41;23.60;54.30
25108;DHT22;13090;53.422;7.670;2023-05-14T08:38:44;23.80;53.40
25108;DHT22;13090;53.422;7.670;2023-05-14T08:43:56;23.90;52.70
25108;DHT22;13090;53.422;7.670;2023-05-14T08:49:09;23.90;51.70
25108;DHT22;13090;53.422;7.670;2023-05-14T08:54:16;24.00;52.30
25108;DHT22;13090;53.422;7.670;2023-05-14T08:59:20;24.10;51.70
25108;DHT22;13090;53.422;7.670;2023-05-14T09:04:23;24.20;50.50
25108;DHT22;13090;53.422;7.670;2023-05-14T09:09:26;24.20;50.90
25108;DHT22;13090;53.422;7.670;2023-05-14T09:14:29;24.20;50.30
25108;DHT22;13090;53.422;7.670;2023-05-14T09:19:34;24.20;49.80
25108;DHT22;13090;53.422;7.670;2023-05-14T09:25:05;24.20;50.40
25108;DHT22;13090;53.422;7.670;2023-05-14T09:30:21;24.20;48.80
25108;DHT22;13090;53.422;7.670;2023-05-14T09:35:33;24.20;49.60
25108;DHT22;13090;53.422;7.670;2023-05-14T09:40:39;24.40;49.40
25108;DHT22;13090;53.422;7.670;2023-05-14T09:45:46;24.80;49.10
25108;DHT22;13090;53.422;7.670;2023-05-14T09:50:56;25.30;48.70
25108;DHT22;13090;53.422;7.670;2023-05-14T09:56:07;25.70;46.30
25108;DHT22;13090;53.422;7.670;2023-05-14T10:01:19;25.90;45.60
25108;DHT22;13090;53.422;7.670;2023-05-14T10:06:28;26.00;44.90
25108;DHT22;13090;53.422;7.670;2023-05-14T10:11:40;25.80;45.00
25108;DHT22;13090;53.422;7.670;2023-05-14T10:16:49;25.70;46.00
25108;DHT22;13090;53.422;7.670;2023-05-14T10:22:06;25.80;45.30
25108;DHT22;13090;53.422;7.670;2023-05-14T10:27:12;25.90;46.10
25108;DHT22;13090;53.422;7.670;2023-05-14T10:32:22;26.20;44.50
25108;DHT22;13090;53.422;7.670;2023-05-14T10:37:32;26.40;45.40
25108;DHT22;13090;53.422;7.670;2023-05-14T10:42:36;26.40;42.00
25108;DHT22;13090;53.422;7.670;2023-05-14T10:47:42;26.20;43.10
25108;DHT22;13090;53.422;7.670;2023-05-14T10:52:45;25.90;43.60
25108;DHT22;13090;53.422;7.670;2023-05-14T10:57:48;25.90;44.60
25108;DHT22;13090;53.422;7.670;2023-05-14T11:02:55;26.10;43.80
25108;DHT22;13090;53.422;7.670;2023-05-14T11:07:58;26.30;42.70
25108;DHT22;13090;53.422;7.670;2023-05-14T11:13:00;26.50;43.10
25108;DHT22;13090;53.422;7.670;2023-05-14T11:18:04;26.50;43.60
25108;DHT22;13090;53.422;7.670;2023-05-14T11:23:07;26.80;42.60
25108;DHT22;13090;53.422;7.670;2023-05-14T11:28:09;27.10;43.60
25108;DHT22;13090;53.422;7.670;2023-05-14T11:33:13;27.40;43.10
25108;DHT22;13090;53.422;7.670;2023-05-14T11:38:16;27.50;39.70
25108;DHT22;13090;53.422;7.670;2023-05-14T11:43:19;27.40;40.70
25108;DHT22;13090;53.422;7.670;2023-05-14T11:48:23;27.20;39.80
25108;DHT22;13090;53.422;7.670;2023-05-14T11:53:29;26.90;39.50
25108;DHT22;13090;53.422;7.670;2023-05-14T11:58:32;26.60;40.30
25108;DHT22;13090;53.422;7.670;2023-05-14T12:03:36;26.40;40.70
25108;DHT22;13090;53.422;7.670;2023-05-14T12:08:39;26.30;39.70
25108;DHT22;13090;53.422;7.670;2023-05-14T12:13:41;26.00;39.10
25108;DHT22;13090;53.422;7.670;2023-05-14T12:18:44;25.60;39.50
25108;DHT22;13090;53.422;7.670;2023-05-14T12:23:47;25.40;40.00
25108;DHT22;13090;53.422;7.670;2023-05-14T12:29:00;25.40;40.90
25108;DHT22;13090;53.422;7.670;2023-05-14T12:34:04;25.70;40.60
25108;DHT22;13090;53.422;7.670;2023-05-14T12:39:06;25.80;40.60
25108;DHT22;13090;53.422;7.670;2023-05-14T12:44:09;25.70;40.00
25108;DHT22;13090;53.422;7.670;2023-05-14T12:49:12;25.80;40.30
25108;DHT22;13090;53.422;7.670;2023-05-14T12:54:15;26.10;40.60
25108;DHT22;13090;53.422;7.670;2023-05-14T12:59:17;26.30;40.20
25108;DHT22;13090;53.422;7.670;2023-05-14T13:04:20;26.60;40.80
25108;DHT22;13090;53.422;7.670;2023-05-14T13:09:23;27.00;40.80
25108;DHT22;13090;53.422;7.670;2023-05-14T13:14:25;27.10;38.10
25108;DHT22;13090;53.422;7.670;2023-05-14T13:19:29;26.80;37.20
25108;DHT22;13090;53.422;7.670;2023-05-14T13:24:33;26.50;38.50
25108;DHT22;13090;53.422;7.670;2023-05-14T13:29:35;26.60;39.50
25108;DHT22;13090;53.422;7.670;2023-05-14T13:34:39;26.80;38.60
25108;DHT22;13090;53.422;7.670;2023-05-14T13:39:42;26.90;37.00
25108;DHT22;13090;53.422;7.670;2023-05-14T13:44:44;26.80;36.80
25108;DHT22;13090;53.422;7.670;2023-05-14T13:49:48;26.40;37.10
25108;DHT22;13090;53.422;7.670;2023-05-14T13:54:50;26.10;37.70
25108;DHT22;13090;53.422;7.670;2023-05-14T13:59:52;26.00;38.40
25108;DHT22;13090;53.422;7.670;2023-05-14T14:04:56;26.10;39.00
25108;DHT22;13090;53.422;7.670;2023-05-14T14:09:58;26.20;38.40
25108;DHT22;13090;53.422;7.670;2023-05-14T14:15:00;26.30;38.40
25108;DHT22;13090;53.422;7.670;2023-05-14T14:20:06;26.40;38.40
25108;DHT22;13090;53.422;7.670;2023-05-14T14:25:09;26.60;38.70
25108;DHT22;13090;53.422;7.670;2023-05-14T14:30:12;26.80;38.70
25108;DHT22;13090;53.422;7.670;2023-05-14T14:35:17;27.00;38.40
25108;DHT22;13090;53.422;7.670;2023-05-14T14:40:19;27.10;38.00
25108;DHT22;13090;53.422;7.670;2023-05-14T14:45:22;26.90;37.70
25108;DHT22;13090;53.422;7.670;2023-05-14T14:50:26;26.90;38.20
25108;DHT22;13090;53.422;7.670;2023-05-14T14:55:28;26.90;38.80
25108;DHT22;13090;53.422;7.670;2023-05-14T15:00:30;26.90;38.30
25108;DHT22;13090;53.422;7.670;2023-05-14T15:05:37;26.90;38.70
25108;DHT22;13090;53.422;7.670;2023-05-14T15:10:39;27.10;38.50
25108;DHT22;13090;53.422;7.670;2023-05-14T15:15:42;27.20;38.40
25108;DHT22;13090;53.422;7.670;2023-05-14T15:20:46;27.20;38.10
25108;DHT22;13090;53.422;7.670;2023-05-14T15:25:49;27.20;37.10
25108;DHT22;13090;53.422;7.670;2023-05-14T15:30:52;27.00;37.40
25108;DHT22;13090;53.422;7.670;2023-05-14T15:36:05;27.00;37.50
25108;DHT22;13090;53.422;7.670;2023-05-14T15:41:09;27.00;37.40
25108;DHT22;13090;53.422;7.670;2023-05-14T15:46:12;27.10;38.00
25108;DHT22;13090;53.422;7.670;2023-05-14T15:51:17;27.20;38.50
25108;DHT22;13090;53.422;7.670;2023-05-14T15:56:21;27.30;38.00
25108;DHT22;13090;53.422;7.670;2023-05-14T16:01:24;27.30;38.30
25108;DHT22;13090;53.422;7.670;2023-05-14T16:06:29;27.30;38.20
25108;DHT22;13090;53.422;7.670;2023-05-14T16:11:31;27.30;38.10
25108;DHT22;13090;53.422;7.670;2023-05-14T16:16:36;27.40;38.00
25108;DHT22;13090;53.422;7.670;2023-05-14T16:21:41;27.30;38.00
25108;DHT22;13090;53.422;7.670;2023-05-14T16:26:44;27.30;38.10
25108;DHT22;13090;53.422;7.670;2023-05-14T16:31:47;27.30;38.10
25108;DHT22;13090;53.422;7.670;2023-05-14T16:36:51;27.20;38.50
25108;DHT22;13090;53.422;7.670;2023-05-14T16:41:54;27.20;38.10
25108;DHT22;13090;53.422;7.670;2023-05-14T16:46:57;27.10;38.50
25108;DHT22;13090;53.422;7.670;2023-05-14T16:52:02;27.10;38.70
25108;DHT22;13090;53.422;7.670;2023-05-14T16:57:04;27.00;38.80
25108;DHT22;13090;53.422;7.670;2023-05-14T17:02:07;26.80;39.60
25108;DHT22;13090;53.422;7.670;2023-05-14T17:07:11;26.40;40.10
25108;DHT22;13090;53.422;7.670;2023-05-14T17:12:16;26.00;40.80
25108;DHT22;13090;53.422;7.670;2023-05-14T17:17:18;25.80;41.40
25108;DHT22;13090;53.422;7.670;2023-05-14T17:22:23;25.60;42.20
25108;DHT22;13090;53.422;7.670;2023-05-14T17:27:25;25.20;42.50
25108;DHT22;13090;53.422;7.670;2023-05-14T17:37:39;24.80;43.50
25108;DHT22;13090;53.422;7.670;2023-05-14T17:42:42;24.70;42.90
25108;DHT22;13090;53.422;7.670;2023-05-14T17:47:48;24.60;43.10
25108;DHT22;13090;53.422;7.670;2023-05-14T17:52:52;24.50;43.30
25108;DHT22;13090;53.422;7.670;2023-05-14T17:57:57;24.50;43.40
25108;DHT22;13090;53.422;7.670;2023-05-14T18:02:59;24.50;43.50
25108;DHT22;13090;53.422;7.670;2023-05-14T18:08:03;24.30;43.80
25108;DHT22;13090;53.422;7.670;2023-05-14T18:13:05;24.10;44.10
25108;DHT22;13090;53.422;7.670;2023-05-14T18:18:07;23.90;44.90
25108;DHT22;13090;53.422;7.670;2023-05-14T18:23:11;23.80;44.60
25108;DHT22;13090;53.422;7.670;2023-05-14T18:28:13;23.70;44.90
25108;DHT22;13090;53.422;7.670;2023-05-14T18:33:16;23.60;45.00
25108;DHT22;13090;53.422;7.670;2023-05-14T18:38:19;23.50;45.10
25108;DHT22;13090;53.422;7.670;2023-05-14T18:43:21;23.30;45.60
25108;DHT22;13090;53.422;7.670;2023-05-14T18:48:24;23.30;45.70
25108;DHT22;13090;53.422;7.670;2023-05-14T18:53:27;23.30;45.70
25108;DHT22;13090;53.422;7.670;2023-05-14T18:58:29;23.20;46.00
25108;DHT22;13090;53.422;7.670;2023-05-14T19:03:32;23.10;46.20
25108;DHT22;13090;53.422;7.670;2023-05-14T19:08:37;23.00;46.40
25108;DHT22;13090;53.422;7.670;2023-05-14T19:13:39;22.80;46.80
25108;DHT22;13090;53.422;7.670;2023-05-14T19:18:41;22.70;46.90
25108;DHT22;13090;53.422;7.670;2023-05-14T19:23:45;22.60;47.10
25108;DHT22;13090;53.422;7.670;2023-05-14T19:28:47;22.50;47.40
25108;DHT22;13090;53.422;7.670;2023-05-14T19:33:50;22.40;47.50
25108;DHT22;13090;53.422;7.670;2023-05-14T19:38:54;22.20;47.60
25108;DHT22;13090;53.422;7.670;2023-05-14T19:43:56;22.10;47.90
25108;DHT22;13090;53.422;7.670;2023-05-14T19:48:58;21.90;47.90
25108;DHT22;13090;53.422;7.670;2023-05-14T19:54:02;21.80;48.20
25108;DHT22;13090;53.422;7.670;2023-05-14T19:59:04;21.60;48.40
25108;DHT22;13090;53.422;7.670;2023-05-14T20:04:06;21.50;48.50
25108;DHT22;13090;53.422;7.670;2023-05-14T20:09:11;21.30;48.70
25108;DHT22;13090;53.422;7.670;2023-05-14T20:14:13;21.20;48.90
25108;DHT22;13090;53.422;7.670;2023-05-14T20:19:15;21.10;49.00
25108;DHT22;13090;53.422;7.670;2023-05-14T20:24:19;20.90;49.30
25108;DHT22;13090;53.422;7.670;2023-05-14T20:29:22;20.80;50.10
25108;DHT22;13090;53.422;7.670;2023-05-14T20:34:24;20.60;50.50
25108;DHT22;13090;53.422;7.670;2023-05-14T20:39:27;20.50;51.00
25108;DHT22;13090;53.422;7.670;2023-05-14T20:44:30;20.30;51.50
25108;DHT22;13090;53.422;7.670;2023-05-14T20:49:32;20.10;51.80
25108;DHT22;13090;53.422;7.670;2023-05-14T20:54:35;19.90;52.20
25108;DHT22;13090;53.422;7.670;2023-05-14T20:59:38;19.70;52.80
25108;DHT22;13090;53.422;7.670;2023-05-14T21:04:40;19.60;52.90
25108;DHT22;13090;53.422;7.670;2023-05-14T21:09:46;19.40;53.40
25108;DHT22;13090;53.422;7.670;2023-05-14T21:14:48;19.30;54.30
25108;DHT22;13090;53.422;7.670;2023-05-14T21:19:50;19.10;54.10
25108;DHT22;13090;53.422;7.670;2023-05-14T21:24:55;19.00;54.50
25108;DHT22;13090;53.422;7.670;2023-05-14T21:29:57;18.90;55.20
25108;DHT22;13090;53.422;7.670;2023-05-14T21:34:59;18.80;55.20
25108;DHT22;13090;53.422;7.670;2023-05-14T21:40:04;18.70;55.50
25108;DHT22;13090;53.422;7.670;2023-05-14T21:45:07;18.60;56.20
25108;DHT22;13090;53.422;7.670;2023-05-14T21:50:09;18.50;56.30
25108;DHT22;13090;53.422;7.670;2023-05-14T21:55:13;18.40;56.80
25108;DHT22;13090;53.422;7.670;2023-05-14T22:00:16;18.30;57.50
25108;DHT22;13090;53.422;7.670;2023-05-14T22:05:18;18.20;57.70
25108;DHT22;13090;53.422;7.670;2023-05-14T22:10:22;18.10;58.60
25108;DHT22;13090;53.422;7.670;2023-05-14T22:15:24;18.00;58.60
25108;DHT22;13090;53.422;7.670;2023-05-14T22:20:27;17.90;58.70
25108;DHT22;13090;53.422;7.670;2023-05-14T22:25:30;17.90;59.20
25108;DHT22;13090;53.422;7.670;2023-05-14T22:30:32;17.80;59.80
25108;DHT22;13090;53.422;7.670;2023-05-14T22:35:35;17.70;59.70
25108;DHT22;13090;53.422;7.670;2023-05-14T22:40:38;17.60;60.10
25108;DHT22;13090;53.422;7.670;2023-05-14T22:45:41;17.60;60.60
25108;DHT22;13090;53.422;7.670;2023-05-14T22:50:44;17.50;60.50
25108;DHT22;13090;53.422;7.670;2023-05-14T22:55:47;17.40;61.00
25108;DHT22;13090;53.422;7.670;2023-05-14T23:00:53;17.30;61.60
25108;DHT22;13090;53.422;7.670;2023-05-14T23:05:55;17.30;61.70
25108;DHT22;13090;53.422;7.670;2023-05-14T23:10:59;17.20;62.10
25108;DHT22;13090;53.422;7.670;2023-05-14T23:16:01;17.10;62.70
25108;DHT22;13090;53.422;7.670;2023-05-14T23:21:03;17.00;62.50
25108;DHT22;13090;53.422;7.670;2023-05-14T23:26:07;16.90;62.80
25108;DHT22;13090;53.422;7.670;2023-05-14T23:31:09;16.90;63.50
25108;DHT22;13090;53.422;7.670;2023-05-14T23:36:12;16.80;63.50
25108;DHT22;13090;53.422;7.670;2023-05-14T23:41:15;16.70;63.80
25108;DHT22;13090;53.422;7.670;2023-05-14T23:46:19;16.70;64.80
25108;DHT22;13090;53.422;7.670;2023-05-14T23:51:21;16.60;64.70
25108;DHT22;13090;53.422;7.670;2023-05-14T23:56:25;16.60;65.00
